Time;durP1;ratioP1;P1;durP2;ratioP2;P2;SDS_P1;SDS_P2;PMS_P1;PMS_P2;Temp;Humidity;BMP_temperature;BMP_pressure;BME280_temperature;BME280_humidity;BME280_pressure;Samples;Min_cycle;Max_cycle;Signal;HPM_P1;HPM_P2
2024/01/21 00:01:29;;;;;;;9.53;7.80;;;;;;;;;;6187320;23;20851;-87
2024/01/21 00:03:55;;;;;;;11.27;5.60;;;;;;;;;;6187916;23;20509;-87
2024/01/21 00:06:21;;;;;;;7.93;4.30;;;;;;;;;;6188419;23;20392;-87
2024/01/21 00:08:47;;;;;;;11.23;5.93;;;;;;;;;;6189995;23;20382;-86
2024/01/21 00:11:13;;;;;;;8.57;5.80;;;;;;;;;;6187815;23;20769;-87
2024/01/21 00:13:39;;;;;;;8.10;5.07;;;;;;;;;;6186233;23;20395;-86
2024/01/21 00:16:05;;;;;;;11.13;6.23;;;;;;;;;;6184527;23;20376;-87
2024/01/21 00:18:31;;;;;;;4.33;3.73;;;;;;;;;;6187474;23;20407;-87
2024/01/21 00:20:57;;;;;;;12.50;9.30;;;;;;;;;;6184067;23;20540;-89
2024/01/21 00:23:23;;;;;;;4.83;4.33;;;;;;;;;;6189277;23;20423;-86
2024/01/21 00:25:49;;;;;;;4.27;3.07;;;;;;;;;;6209280;23;20425;-87
2024/01/21 00:28:15;;;;;;;9.13;6.67;;;;;;;;;;6187003;23;20539;-88
2024/01/21 00:30:41;;;;;;;11.50;6.03;;;;;;;;;;6185474;23;20402;-88
2024/01/21 00:33:07;;;;;;;9.17;5.40;;;;;;;;;;6212013;23;20392;-87
2024/01/21 00:35:33;;;;;;;13.73;7.43;;;;;;;;;;6211494;23;20426;-88
2024/01/21 00:37:59;;;;;;;14.23;7.33;;;;;;;;;;6189546;23;20383;-88
2024/01/21 00:40:25;;;;;;;5.53;3.87;;;;;;;;;;6210654;23;20380;-88
2024/01/21 00:42:51;;;;;;;8.27;6.03;;;;;;;;;;6187902;23;20383;-88
2024/01/21 00:45:18;;;;;;;9.77;3.70;;;;;;;;;;6190330;23;20478;-89
2024/01/21 00:47:44;;;;;;;5.33;4.87;;;;;;;;;;6187741;23;20371;-87
2024/01/21 00:50:10;;;;;;;4.30;3.90;;;;;;;;;;6186214;23;20384;-87
2024/01/21 00:52:36;;;;;;;7.20;4.00;;;;;;;;;;6188652;23;21015;-87
2024/01/21 00:55:07;;;;;;;7.00;4.70;;;;;;;;;;6186675;23;20443;-86
2024/01/21 00:57:33;;;;;;;7.00;6.20;;;;;;;;;;6191880;23;20380;-88
2024/01/21 00:59:59;;;;;;;12.23;5.60;;;;;;;;;;6191148;23;20402;-88
2024/01/21 01:02:25;;;;;;;7.97;7.10;;;;;;;;;;6187703;23;20435;-88
2024/01/21 01:04:51;;;;;;;9.87;4.97;;;;;;;;;;6189050;23;20467;-87
2024/01/21 01:07:18;;;;;;;12.17;4.97;;;;;;;;;;6189441;23;20435;-87
2024/01/21 01:09:44;;;;;;;7.77;4.77;;;;;;;;;;6215486;23;20832;-87
2024/01/21 01:12:10;;;;;;;5.10;3.40;;;;;;;;;;6188119;23;20391;-88
2024/01/21 01:14:39;;;;;;;6.03;5.40;;;;;;;;;;6189663;23;20479;-87
2024/01/21 01:17:05;;;;;;;4.77;4.27;;;;;;;;;;6215403;23;20435;-88
2024/01/21 01:19:31;;;;;;;6.23;4.43;;;;;;;;;;6196958;23;20391;-87
2024/01/21 01:21:57;;;;;;;4.53;4.13;;;;;;;;;;6189213;23;20419;-87
2024/01/21 01:24:23;;;;;;;6.27;4.63;;;;;;;;;;6215515;23;20419;-87
2024/01/21 01:26:54;;;;;;;6.60;4.07;;;;;;;;;;6214322;23;20364;-87
2024/01/21 01:29:20;;;;;;;5.73;4.10;;;;;;;;;;6193956;23;20530;-89
2024/01/21 01:31:46;;;;;;;6.90;3.80;;;;;;;;;;6189869;23;20396;-87
2024/01/21 01:34:12;;;;;;;6.07;2.87;;;;;;;;;;6189827;23;20878;-87
2024/01/21 01:36:39;;;;;;;5.47;3.97;;;;;;;;;;6187899;23;20414;-87
2024/01/21 01:39:07;;;;;;;6.47;4.47;;;;;;;;;;6187251;23;20453;-87
2024/01/21 01:41:33;;;;;;;7.10;6.37;;;;;;;;;;6215227;23;20368;-86
2024/01/21 01:43:59;;;;;;;4.20;3.53;;;;;;;;;;6187899;23;20432;-87
2024/01/21 01:46:25;;;;;;;4.97;4.23;;;;;;;;;;6188993;23;20415;-87
2024/01/21 01:48:51;;;;;;;4.77;4.30;;;;;;;;;;6189337;23;20384;-87
2024/01/21 01:51:17;;;;;;;6.50;3.80;;;;;;;;;;6190978;23;20373;-87
2024/01/21 01:53:43;;;;;;;7.33;5.47;;;;;;;;;;6188274;23;20391;-88
2024/01/21 01:56:12;;;;;;;4.87;4.33;;;;;;;;;;6189769;23;20882;-86
2024/01/21 01:58:38;;;;;;;6.10;4.43;;;;;;;;;;6187488;23;20395;-87
2024/01/21 02:01:04;;;;;;;8.40;4.57;;;;;;;;;;6192855;23;20387;-87
2024/01/21 02:03:30;;;;;;;3.00;2.80;;;;;;;;;;6213647;23;20792;-86
2024/01/21 02:05:56;;;;;;;3.00;2.50;;;;;;;;;;6189417;23;20450;-87
2024/01/21 02:08:22;;;;;;;2.57;2.03;;;;;;;;;;6189465;23;20388;-87
2024/01/21 02:10:48;;;;;;;7.87;4.03;;;;;;;;;;6191047;23;20379;-86
2024/01/21 02:13:15;;;;;;;5.33;3.67;;;;;;;;;;6188060;23;20407;-86
2024/01/21 02:15:41;;;;;;;3.33;3.03;;;;;;;;;;6189033;23;20380;-85
2024/01/21 02:18:07;;;;;;;6.47;3.93;;;;;;;;;;6213095;23;20696;-86
2024/01/21 02:20:34;;;;;;;4.50;4.10;;;;;;;;;;6216313;23;20368;-88
2024/01/21 02:23:02;;;;;;;2.97;2.40;;;;;;;;;;6190681;23;20511;-86
2024/01/21 02:25:28;;;;;;;6.43;3.27;;;;;;;;;;6215712;23;20423;-87
2024/01/21 02:27:55;;;;;;;4.40;4.03;;;;;;;;;;6189523;23;20376;-87
2024/01/21 02:30:21;;;;;;;3.57;2.40;;;;;;;;;;6215646;23;20388;-88
2024/01/21 02:32:48;;;;;;;5.23;2.40;;;;;;;;;;6216481;23;20368;-86
2024/01/21 02:35:14;;;;;;;1.50;1.40;;;;;;;;;;6213897;23;20373;-87
2024/01/21 02:37:41;;;;;;;7.30;2.77;;;;;;;;;;6189213;23;20388;-86
2024/01/21 02:40:07;;;;;;;4.20;2.63;;;;;;;;;;6188997;23;20375;-86
2024/01/21 02:42:33;;;;;;;3.10;2.80;;;;;;;;;;6190922;23;20368;-87
2024/01/21 02:44:59;;;;;;;4.33;4.03;;;;;;;;;;6187254;23;20763;-86
2024/01/21 02:47:25;;;;;;;3.23;2.40;;;;;;;;;;6187392;23;20384;-86
2024/01/21 02:49:51;;;;;;;4.00;2.10;;;;;;;;;;6188629;23;20372;-86
2024/01/21 02:52:17;;;;;;;4.00;2.93;;;;;;;;;;6189908;23;20402;-88
2024/01/21 02:54:43;;;;;;;5.63;2.73;;;;;;;;;;6214923;23;20364;-85
2024/01/21 02:57:09;;;;;;;3.63;2.97;;;;;;;;;;6188009;23;20852;-86
2024/01/21 02:59:35;;;;;;;3.97;2.93;;;;;;;;;;6189159;23;20824;-87
2024/01/21 03:02:01;;;;;;;3.80;2.90;;;;;;;;;;6191712;23;20392;-87
2024/01/21 03:04:27;;;;;;;3.00;2.53;;;;;;;;;;6189448;23;20756;-87
2024/01/21 03:06:53;;;;;;;5.93;4.50;;;;;;;;;;6215484;23;20380;-87
2024/01/21 03:09:19;;;;;;;2.80;2.60;;;;;;;;;;6189946;23;20712;-88
2024/01/21 03:11:45;;;;;;;6.23;3.00;;;;;;;;;;6217173;23;20400;-87
2024/01/21 03:14:11;;;;;;;3.47;2.73;;;;;;;;;;6214558;23;20391;-88
2024/01/21 03:16:37;;;;;;;2.67;2.47;;;;;;;;;;6191233;23;20388;-87
2024/01/21 03:19:03;;;;;;;3.60;2.73;;;;;;;;;;6214368;23;20368;-87
2024/01/21 03:21:29;;;;;;;2.73;2.53;;;;;;;;;;6190267;23;20467;-87
2024/01/21 03:23:55;;;;;;;3.10;1.87;;;;;;;;;;6214177;23;20416;-87
2024/01/21 03:26:21;;;;;;;7.07;3.33;;;;;;;;;;6189572;23;20395;-87
2024/01/21 03:28:47;;;;;;;2.20;1.90;;;;;;;;;;6188669;23;20390;-87
2024/01/21 03:31:13;;;;;;;2.67;2.37;;;;;;;;;;6190391;23;20443;-85
2024/01/21 03:33:39;;;;;;;1.40;1.30;;;;;;;;;;6188657;23;20435;-86
2024/01/21 03:36:05;;;;;;;7.23;3.00;;;;;;;;;;6188070;23;20475;-88
2024/01/21 03:38:31;;;;;;;1.43;1.33;;;;;;;;;;6188248;23;20465;-87
2024/01/21 03:40:57;;;;;;;3.20;2.33;;;;;;;;;;6194225;23;21029;-86
2024/01/21 03:43:23;;;;;;;3.03;2.43;;;;;;;;;;6189186;23;20400;-87
2024/01/21 03:45:48;;;;;;;5.23;1.67;;;;;;;;;;6189650;23;20454;-86
2024/01/21 03:48:14;;;;;;;4.13;3.90;;;;;;;;;;6191449;23;20391;-86
2024/01/21 03:50:40;;;;;;;3.17;2.10;;;;;;;;;;6187248;23;20832;-86
2024/01/21 03:53:06;;;;;;;3.47;2.00;;;;;;;;;;6189727;23;20411;-88
2024/01/21 03:55:32;;;;;;;2.00;1.90;;;;;;;;;;6213207;23;20436;-87
2024/01/21 03:57:58;;;;;;;1.73;1.50;;;;;;;;;;6187275;23;20934;-88
2024/01/21 04:00:24;;;;;;;1.83;1.73;;;;;;;;;;6187415;23;20880;-88
2024/01/21 04:02:50;;;;;;;6.37;3.93;;;;;;;;;;6212373;23;20380;-87
2024/01/21 04:05:16;;;;;;;5.00;1.60;;;;;;;;;;6212371;23;20427;-88
2024/01/21 04:07:42;;;;;;;3.93;2.27;;;;;;;;;;6187685;23;20368;-88
2024/01/21 04:10:10;;;;;;;3.37;2.50;;;;;;;;;;6186892;23;20408;-88
2024/01/21 04:12:36;;;;;;;2.63;2.40;;;;;;;;;;6194610;23;20394;-87
2024/01/21 04:15:02;;;;;;;2.87;2.37;;;;;;;;;;6210257;23;20851;-86
2024/01/21 04:17:28;;;;;;;3.40;2.47;;;;;;;;;;6190178;23;20376;-87
2024/01/21 04:19:54;;;;;;;4.83;4.33;;;;;;;;;;6212629;23;20870;-88
2024/01/21 04:22:21;;;;;;;2.67;2.47;;;;;;;;;;6215473;23;20387;-87
2024/01/21 04:24:48;;;;;;;2.93;2.53;;;;;;;;;;6211876;23;20420;-86
2024/01/21 04:27:14;;;;;;;2.63;2.37;;;;;;;;;;6188610;23;20400;-88
2024/01/21 04:29:40;;;;;;;4.23;2.57;;;;;;;;;;6187825;23;20396;-87
2024/01/21 04:32:07;;;;;;;5.00;3.67;;;;;;;;;;6190446;23;20378;-88
2024/01/21 04:34:34;;;;;;;3.13;2.43;;;;;;;;;;6213957;23;20364;-87
2024/01/21 04:37:01;;;;;;;1.97;1.83;;;;;;;;;;6188246;23;20462;-88
2024/01/21 04:39:27;;;;;;;2.40;2.00;;;;;;;;;;6188698;23;20452;-87
2024/01/21 04:41:55;;;;;;;4.30;2.27;;;;;;;;;;6190302;23;21195;-87
2024/01/21 04:44:21;;;;;;;4.43;3.70;;;;;;;;;;6192578;23;20447;-88
2024/01/21 04:46:47;;;;;;;2.40;1.70;;;;;;;;;;6188904;23;20388;-88
2024/01/21 04:49:13;;;;;;;5.43;2.13;;;;;;;;;;6190981;23;20435;-88
2024/01/21 04:51:39;;;;;;;3.97;3.57;;;;;;;;;;6188473;23;20391;-88
2024/01/21 04:54:05;;;;;;;2.40;1.57;;;;;;;;;;6189177;23;20391;-86
2024/01/21 04:56:31;;;;;;;7.07;3.40;;;;;;;;;;6187714;23;20395;-88
2024/01/21 04:58:56;;;;;;;3.00;1.87;;;;;;;;;;6188541;23;20387;-88
2024/01/21 05:01:23;;;;;;;2.40;2.20;;;;;;;;;;6187064;23;20391;-87
2024/01/21 05:03:50;;;;;;;5.13;3.17;;;;;;;;;;6188007;23;20454;-87
2024/01/21 05:06:17;;;;;;;2.23;1.87;;;;;;;;;;6186773;23;20434;-88
2024/01/21 05:08:43;;;;;;;3.63;2.93;;;;;;;;;;6187049;23;20912;-88
2024/01/21 05:11:09;;;;;;;3.40;2.97;;;;;;;;;;6187998;23;20384;-88
2024/01/21 05:13:35;;;;;;;3.47;2.50;;;;;;;;;;6216160;23;20407;-87
2024/01/21 05:16:03;;;;;;;2.93;2.20;;;;;;;;;;6188610;23;20395;-87
2024/01/21 05:18:29;;;;;;;2.57;2.37;;;;;;;;;;6192380;23;20867;-88
2024/01/21 05:20:55;;;;;;;5.07;3.07;;;;;;;;;;6215670;23;20364;-88
2024/01/21 05:23:21;;;;;;;2.57;2.37;;;;;;;;;;6190429;23;20372;-87
2024/01/21 05:25:50;;;;;;;3.33;2.87;;;;;;;;;;6216143;23;20423;-87
2024/01/21 05:28:16;;;;;;;2.67;2.20;;;;;;;;;;6191451;23;20408;-87
2024/01/21 05:30:42;;;;;;;3.37;3.07;;;;;;;;;;6215322;23;20372;-88
2024/01/21 05:33:08;;;;;;;3.90;2.03;;;;;;;;;;6190761;23;20380;-87
2024/01/21 05:35:35;;;;;;;4.07;2.20;;;;;;;;;;6189196;23;20712;-86
2024/01/21 05:38:01;;;;;;;3.03;2.00;;;;;;;;;;6188906;23;20401;-88
2024/01/21 05:40:27;;;;;;;2.90;2.67;;;;;;;;;;6189604;23;20388;-87
2024/01/21 05:42:53;;;;;;;1.97;1.87;;;;;;;;;;6191271;23;20387;-88
2024/01/21 05:45:20;;;;;;;3.00;1.83;;;;;;;;;;6216937;23;20431;-87
2024/01/21 05:47:46;;;;;;;4.73;2.53;;;;;;;;;;6190800;23;20391;-87
2024/01/21 05:50:12;;;;;;;2.93;2.07;;;;;;;;;;6214188;23;20758;-87
2024/01/21 05:52:39;;;;;;;4.43;2.77;;;;;;;;;;6189428;23;20512;-87
2024/01/21 05:55:05;;;;;;;3.47;2.67;;;;;;;;;;6214969;23;20364;-87
2024/01/21 05:57:31;;;;;;;3.23;2.20;;;;;;;;;;6188300;23;20395;-86
2024/01/21 05:59:58;;;;;;;2.83;2.63;;;;;;;;;;6191036;23;20384;-87
2024/01/21 06:02:24;;;;;;;1.40;1.30;;;;;;;;;;6215913;23;20372;-87
2024/01/21 06:04:50;;;;;;;12.07;5.77;;;;;;;;;;6189826;23;20943;-87
2024/01/21 06:07:16;;;;;;;8.87;6.03;;;;;;;;;;6216381;23;20436;-87
2024/01/21 06:09:42;;;;;;;3.20;1.70;;;;;;;;;;6191685;23;20364;-88
2024/01/21 06:12:08;;;;;;;4.37;2.90;;;;;;;;;;6191684;23;20878;-87
2024/01/21 06:14:34;;;;;;;6.10;3.03;;;;;;;;;;6190429;23;20380;-86
2024/01/21 06:17:00;;;;;;;3.93;2.43;;;;;;;;;;6191216;23;20442;-87
2024/01/21 06:19:26;;;;;;;3.10;2.73;;;;;;;;;;6165004;23;20423;-87
2024/01/21 06:21:52;;;;;;;2.80;2.60;;;;;;;;;;6166381;23;20373;-86
2024/01/21 06:24:18;;;;;;;5.03;2.27;;;;;;;;;;6164166;23;20568;-86
2024/01/21 06:26:44;;;;;;;6.40;3.43;;;;;;;;;;6166014;23;20927;-89
2024/01/21 06:29:10;;;;;;;8.33;2.33;;;;;;;;;;6164012;23;20415;-86
2024/01/21 06:31:36;;;;;;;6.77;2.63;;;;;;;;;;6165569;23;20400;-87
2024/01/21 06:34:02;;;;;;;1.53;1.40;;;;;;;;;;6163517;23;20391;-85
2024/01/21 06:36:28;;;;;;;4.27;2.37;;;;;;;;;;6163233;23;20399;-88
2024/01/21 06:38:54;;;;;;;13.33;3.10;;;;;;;;;;6162567;23;20372;-85
2024/01/21 06:41:20;;;;;;;2.70;2.10;;;;;;;;;;6163927;23;20442;-86
2024/01/21 06:43:46;;;;;;;3.47;2.50;;;;;;;;;;6162518;23;20835;-89
2024/01/21 06:46:12;;;;;;;3.53;2.90;;;;;;;;;;6169595;23;20443;-86
2024/01/21 06:48:38;;;;;;;10.30;3.00;;;;;;;;;;6164481;23;20443;-88
2024/01/21 06:51:09;;;;;;;4.40;2.90;;;;;;;;;;6165544;23;20376;-87
2024/01/21 06:53:36;;;;;;;3.83;2.70;;;;;;;;;;6165753;23;20471;-88
2024/01/21 06:56:07;;;;;;;3.20;2.47;;;;;;;;;;6217135;23;20403;-86
2024/01/21 06:58:36;;;;;;;7.43;4.07;;;;;;;;;;6189313;23;20468;-87
2024/01/21 07:01:02;;;;;;;4.70;2.80;;;;;;;;;;6191751;23;20439;-87
2024/01/21 07:03:28;;;;;;;3.57;3.20;;;;;;;;;;6190610;23;20879;-86
2024/01/21 07:05:54;;;;;;;5.37;3.07;;;;;;;;;;6192224;23;20376;-88
2024/01/21 07:08:20;;;;;;;3.43;3.17;;;;;;;;;;6191481;23;20412;-86
2024/01/21 07:10:46;;;;;;;3.90;2.50;;;;;;;;;;6191290;23;20383;-87
2024/01/21 07:13:13;;;;;;;3.13;2.37;;;;;;;;;;6215245;23;20371;-90
2024/01/21 07:15:43;;;;;;;1.70;1.60;;;;;;;;;;6192071;23;20392;-88
2024/01/21 07:18:09;;;;;;;2.13;1.60;;;;;;;;;;6191101;23;20864;-87
2024/01/21 07:20:35;;;;;;;4.30;2.07;;;;;;;;;;6190911;23;20395;-88
2024/01/21 07:23:01;;;;;;;3.03;2.83;;;;;;;;;;6191434;23;20380;-88
2024/01/21 07:25:27;;;;;;;3.90;3.10;;;;;;;;;;6190910;23;20431;-87
2024/01/21 07:27:53;;;;;;;5.60;2.83;;;;;;;;;;6214718;23;20587;-87
2024/01/21 07:30:19;;;;;;;4.70;2.97;;;;;;;;;;6215143;23;20388;-88
2024/01/21 07:32:45;;;;;;;4.43;2.33;;;;;;;;;;6190477;23;20364;-87
2024/01/21 07:35:11;;;;;;;4.20;2.80;;;;;;;;;;6214648;23;20368;-88
2024/01/21 07:37:37;;;;;;;5.57;1.97;;;;;;;;;;6192587;23;20384;-86
2024/01/21 07:40:04;;;;;;;3.30;3.00;;;;;;;;;;6189851;23;20785;-88
2024/01/21 07:42:30;;;;;;;3.40;3.10;;;;;;;;;;6191386;23;20376;-87
2024/01/21 07:44:56;;;;;;;3.90;3.40;;;;;;;;;;6216816;23;20420;-88
2024/01/21 07:47:21;;;;;;;3.50;3.23;;;;;;;;;;6192702;23;20427;-88
2024/01/21 07:49:48;;;;;;;5.10;3.63;;;;;;;;;;6193838;23;21130;-87
2024/01/21 07:52:16;;;;;;;6.80;3.10;;;;;;;;;;6190292;23;20380;-87
2024/01/21 07:54:42;;;;;;;2.60;2.40;;;;;;;;;;6191676;23;20387;-88
2024/01/21 07:57:08;;;;;;;8.13;3.97;;;;;;;;;;6191175;23;20376;-89
2024/01/21 07:59:34;;;;;;;3.00;2.50;;;;;;;;;;6193326;23;20892;-88
2024/01/21 08:02:00;;;;;;;5.57;3.33;;;;;;;;;;6192414;23;20380;-89
2024/01/21 08:04:26;;;;;;;4.77;2.97;;;;;;;;;;6193392;23;20466;-88
2024/01/21 08:06:52;;;;;;;2.57;1.80;;;;;;;;;;6191907;23;20840;-87
2024/01/21 08:09:19;;;;;;;4.80;2.97;;;;;;;;;;6191483;23;20483;-88
2024/01/21 08:11:45;;;;;;;6.10;3.80;;;;;;;;;;6190256;23;20376;-88
2024/01/21 08:14:13;;;;;;;3.77;3.40;;;;;;;;;;6189771;23;20392;-87
2024/01/21 08:16:39;;;;;;;3.30;3.00;;;;;;;;;;6212790;23;20360;-87
2024/01/21 08:19:05;;;;;;;3.63;2.67;;;;;;;;;;6187685;23;20376;-87
2024/01/21 08:21:31;;;;;;;4.23;3.00;;;;;;;;;;6191253;23;20402;-89
2024/01/21 08:23:57;;;;;;;3.53;3.23;;;;;;;;;;6190991;23;20450;-88
2024/01/21 08:26:23;;;;;;;5.20;3.40;;;;;;;;;;6191089;23;20420;-89
2024/01/21 08:28:49;;;;;;;6.70;4.10;;;;;;;;;;6193715;23;20403;-89
2024/01/21 08:31:16;;;;;;;3.33;3.03;;;;;;;;;;6191331;23;20454;-90
2024/01/21 08:33:43;;;;;;;3.87;3.57;;;;;;;;;;6192673;23;20438;-89
2024/01/21 08:36:10;;;;;;;4.00;3.70;;;;;;;;;;6217272;23;20368;-88
2024/01/21 08:38:37;;;;;;;5.90;3.93;;;;;;;;;;6191973;23;20392;-89
2024/01/21 08:41:03;;;;;;;3.47;2.63;;;;;;;;;;6189642;23;20454;-88
2024/01/21 08:43:29;;;;;;;5.13;4.03;;;;;;;;;;6215379;23;20376;-88
2024/01/21 08:45:55;;;;;;;3.17;2.73;;;;;;;;;;6193860;23;20376;-90
2024/01/21 08:48:21;;;;;;;4.20;3.60;;;;;;;;;;6192653;23;20485;-89
2024/01/21 08:50:47;;;;;;;4.00;3.60;;;;;;;;;;6192366;23;20483;-90
2024/01/21 08:53:13;;;;;;;6.30;4.33;;;;;;;;;;6220869;23;20363;-89
2024/01/21 08:55:39;;;;;;;5.40;3.27;;;;;;;;;;6220826;23;20388;-89
2024/01/21 08:58:05;;;;;;;4.70;3.80;;;;;;;;;;6194177;23;20443;-89
2024/01/21 09:00:31;;;;;;;7.03;4.23;;;;;;;;;;6196842;23;20445;-90
2024/01/21 09:02:57;;;;;;;5.80;4.53;;;;;;;;;;6217806;23;20364;-89
2024/01/21 09:05:24;;;;;;;7.30;3.37;;;;;;;;;;6194490;23;20497;-87
2024/01/21 09:07:49;;;;;;;3.97;3.63;;;;;;;;;;6193045;23;20388;-90
2024/01/21 09:10:17;;;;;;;3.50;2.97;;;;;;;;;;6192104;23;20446;-87
2024/01/21 09:12:43;;;;;;;4.63;4.00;;;;;;;;;;6217956;23;20368;-90
2024/01/21 09:15:09;;;;;;;5.30;4.80;;;;;;;;;;6194042;23;20379;-87
2024/01/21 09:17:35;;;;;;;6.00;4.63;;;;;;;;;;6196623;23;20434;-88
2024/01/21 09:20:01;;;;;;;4.30;3.77;;;;;;;;;;6193763;23;20882;-86
2024/01/21 09:22:27;;;;;;;5.90;3.80;;;;;;;;;;6192799;23;20390;-88
2024/01/21 09:24:53;;;;;;;3.20;2.70;;;;;;;;;;6194258;23;20423;-87
2024/01/21 09:27:19;;;;;;;5.70;4.20;;;;;;;;;;6197712;23;20384;-88
2024/01/21 09:29:45;;;;;;;8.77;3.37;;;;;;;;;;6193704;23;20416;-87
2024/01/21 09:32:11;;;;;;;3.40;2.80;;;;;;;;;;6195953;23;20365;-89
2024/01/21 09:34:39;;;;;;;15.13;4.50;;;;;;;;;;6190754;23;20558;-88
2024/01/21 09:37:07;;;;;;;4.37;3.63;;;;;;;;;;6191486;23;20420;-90
2024/01/21 09:39:33;;;;;;;10.97;3.50;;;;;;;;;;6192269;23;20375;-90
2024/01/21 09:41:59;;;;;;;6.47;4.30;;;;;;;;;;6194941;23;20388;-89
2024/01/21 09:44:28;;;;;;;4.00;3.60;;;;;;;;;;6194582;23;20424;-90
2024/01/21 09:46:55;;;;;;;4.63;3.47;;;;;;;;;;6218450;23;20388;-89
2024/01/21 09:49:21;;;;;;;5.90;4.17;;;;;;;;;;6191444;23;20387;-89
2024/01/21 09:51:47;;;;;;;4.10;3.77;;;;;;;;;;6192802;23;20391;-90
2024/01/21 09:54:13;;;;;;;3.93;3.10;;;;;;;;;;6191162;23;20446;-88
2024/01/21 09:56:39;;;;;;;6.53;4.30;;;;;;;;;;6191805;23;20384;-89
2024/01/21 09:59:05;;;;;;;4.97;3.53;;;;;;;;;;6191167;23;20415;-88
2024/01/21 10:01:32;;;;;;;5.07;3.63;;;;;;;;;;6191290;23;21079;-88
2024/01/21 10:03:58;;;;;;;4.00;3.30;;;;;;;;;;6190487;23;20427;-88
2024/01/21 10:06:24;;;;;;;3.13;2.50;;;;;;;;;;6214983;23;20378;-89
2024/01/21 10:08:50;;;;;;;6.93;2.87;;;;;;;;;;6216138;23;20371;-88
2024/01/21 10:11:16;;;;;;;3.47;2.67;;;;;;;;;;6214198;23;20816;-87
2024/01/21 10:13:42;;;;;;;3.77;3.40;;;;;;;;;;6190660;23;20378;-88
2024/01/21 10:16:10;;;;;;;4.63;3.63;;;;;;;;;;6189672;23;20411;-89
2024/01/21 10:18:36;;;;;;;4.73;3.03;;;;;;;;;;6191724;23;20762;-88
2024/01/21 10:21:10;;;;;;;4.50;3.07;;;;;;;;;;6191532;23;20388;-89
2024/01/21 10:23:36;;;;;;;6.40;4.33;;;;;;;;;;6192507;23;20905;-89
2024/01/21 10:26:02;;;;;;;5.20;3.50;;;;;;;;;;6193366;23;20388;-88
2024/01/21 10:28:30;;;;;;;6.17;4.53;;;;;;;;;;6219989;23;20371;-87
2024/01/21 10:30:56;;;;;;;3.00;2.50;;;;;;;;;;6192716;23;20436;-88
2024/01/21 10:33:22;;;;;;;4.33;3.57;;;;;;;;;;6195958;23;20384;-89
2024/01/21 10:35:48;;;;;;;4.00;3.07;;;;;;;;;;6194070;23;20891;-88
2024/01/21 10:38:18;;;;;;;10.30;5.60;;;;;;;;;;6217258;23;20677;-89
2024/01/21 10:40:44;;;;;;;6.53;3.50;;;;;;;;;;6219685;23;20364;-89
2024/01/21 10:43:14;;;;;;;6.10;4.73;;;;;;;;;;6196283;23;20382;-88
2024/01/21 10:45:41;;;;;;;5.90;3.70;;;;;;;;;;6195999;23;20443;-89
2024/01/21 10:48:07;;;;;;;7.00;4.90;;;;;;;;;;6194961;23;20483;-89
2024/01/21 10:50:34;;;;;;;6.07;4.30;;;;;;;;;;6167618;23;20447;-89
2024/01/21 10:53:00;;;;;;;5.80;4.40;;;;;;;;;;6165009;23;21132;-88
2024/01/21 10:55:26;;;;;;;6.20;4.30;;;;;;;;;;6167391;23;20390;-89
2024/01/21 10:57:52;;;;;;;5.00;4.03;;;;;;;;;;6189365;23;20388;-89
2024/01/21 11:00:18;;;;;;;5.93;4.30;;;;;;;;;;6163556;23;20470;-88
2024/01/21 11:03:05;;;;;;;6.13;4.13;;;;;;;;;;6156508;23;20389;-88
2024/01/21 11:05:31;;;;;;;6.23;3.90;;;;;;;;;;6122435;23;20437;-89
2024/01/21 11:08:00;;;;;;;5.73;4.03;;;;;;;;;;6152526;23;20404;-87
2024/01/21 11:10:26;;;;;;;4.93;4.13;;;;;;;;;;6149976;23;20449;-89
2024/01/21 11:12:57;;;;;;;13.80;4.33;;;;;;;;;;6154701;23;20461;-88
2024/01/21 11:15:29;;;;;;;5.20;3.93;;;;;;;;;;6149896;23;21101;-88
2024/01/21 11:18:16;;;;;;;5.93;4.97;;;;;;;;;;6128940;23;20378;-88
2024/01/21 11:20:42;;;;;;;5.20;4.20;;;;;;;;;;6132179;23;20389;-89
2024/01/21 11:23:14;;;;;;;10.43;3.90;;;;;;;;;;6160637;23;20377;-88
2024/01/21 11:25:40;;;;;;;10.60;4.10;;;;;;;;;;6158442;23;20427;-87
2024/01/21 11:28:23;;;;;;;6.63;4.30;;;;;;;;;;6161231;23;20535;-89
2024/01/21 11:30:53;;;;;;;8.00;4.30;;;;;;;;;;6164495;23;20415;-89
2024/01/21 11:33:23;;;;;;;4.77;4.37;;;;;;;;;;6179611;23;20386;-88
2024/01/21 11:35:49;;;;;;;9.00;5.10;;;;;;;;;;6194466;23;20388;-89
2024/01/21 11:38:15;;;;;;;6.43;4.30;;;;;;;;;;6197398;23;20880;-88
2024/01/21 11:40:42;;;;;;;5.60;4.57;;;;;;;;;;6166964;23;20479;-89
2024/01/21 11:43:08;;;;;;;4.60;4.20;;;;;;;;;;6168884;23;20400;-89
2024/01/21 11:45:34;;;;;;;8.10;4.87;;;;;;;;;;6167147;23;20479;-88
2024/01/21 11:48:03;;;;;;;6.80;4.80;;;;;;;;;;6161375;23;20436;-88
2024/01/21 11:50:29;;;;;;;6.90;5.40;;;;;;;;;;6158300;23;20415;-86
2024/01/21 11:52:56;;;;;;;4.17;3.77;;;;;;;;;;6183405;23;20356;-88
2024/01/21 11:55:22;;;;;;;9.40;5.40;;;;;;;;;;6158120;23;20396;-88
2024/01/21 11:57:48;;;;;;;10.37;4.60;;;;;;;;;;6164609;23;20399;-89
2024/01/21 12:00:14;;;;;;;5.43;4.30;;;;;;;;;;6166094;23;20396;-89
2024/01/21 12:02:40;;;;;;;8.20;4.00;;;;;;;;;;6170964;23;20388;-89
2024/01/21 12:05:06;;;;;;;4.87;3.90;;;;;;;;;;6190492;23;20415;-87
2024/01/21 12:07:32;;;;;;;5.00;3.70;;;;;;;;;;6191079;23;20438;-88
2024/01/21 12:09:59;;;;;;;8.73;5.10;;;;;;;;;;6164788;23;20924;-88
2024/01/21 12:12:28;;;;;;;4.03;3.73;;;;;;;;;;6169075;23;20384;-89
2024/01/21 12:14:57;;;;;;;3.83;3.40;;;;;;;;;;6197891;23;20408;-88
2024/01/21 12:17:23;;;;;;;4.77;3.00;;;;;;;;;;6192141;23;20384;-87
2024/01/21 12:19:52;;;;;;;7.63;4.13;;;;;;;;;;6188192;23;20391;-86
2024/01/21 12:22:20;;;;;;;8.07;3.80;;;;;;;;;;6190645;23;20411;-86
2024/01/21 12:24:46;;;;;;;4.30;3.43;;;;;;;;;;6190563;23;20874;-87
2024/01/21 12:27:13;;;;;;;6.10;3.70;;;;;;;;;;6193655;23;20891;-85
2024/01/21 12:29:40;;;;;;;7.73;4.00;;;;;;;;;;6192086;23;20720;-86
2024/01/21 12:32:06;;;;;;;7.77;4.20;;;;;;;;;;6193183;23;20380;-85
2024/01/21 12:34:34;;;;;;;4.67;4.17;;;;;;;;;;6196379;23;20379;-86
2024/01/21 12:37:00;;;;;;;5.67;4.50;;;;;;;;;;6191481;23;20387;-86
2024/01/21 12:39:26;;;;;;;7.13;3.87;;;;;;;;;;6199850;23;20400;-89
2024/01/21 12:41:52;;;;;;;4.70;3.70;;;;;;;;;;6195707;23;20379;-88
2024/01/21 12:44:18;;;;;;;4.30;3.40;;;;;;;;;;6196457;23;20432;-88
2024/01/21 12:46:45;;;;;;;6.50;4.20;;;;;;;;;;6194392;23;20384;-87
2024/01/21 12:49:11;;;;;;;4.37;3.57;;;;;;;;;;6191854;23;20442;-88
2024/01/21 12:51:38;;;;;;;6.70;3.43;;;;;;;;;;6190768;23;20380;-89
2024/01/21 12:54:04;;;;;;;4.23;3.20;;;;;;;;;;6192339;23;20403;-90
2024/01/21 12:56:30;;;;;;;8.47;3.60;;;;;;;;;;6162844;23;20392;-90
2024/01/21 12:58:56;;;;;;;5.17;2.93;;;;;;;;;;6163117;23;20393;-89
2024/01/21 13:01:22;;;;;;;6.90;3.43;;;;;;;;;;6137899;23;20884;-88
2024/01/21 13:03:48;;;;;;;4.30;2.60;;;;;;;;;;6135530;23;20500;-89
2024/01/21 13:06:17;;;;;;;6.53;2.90;;;;;;;;;;6138419;23;20448;-88
2024/01/21 13:08:43;;;;;;;5.97;4.27;;;;;;;;;;6136668;23;20385;-89
2024/01/21 13:11:12;;;;;;;7.50;3.90;;;;;;;;;;6137094;23;20472;-88
2024/01/21 13:13:38;;;;;;;5.20;3.80;;;;;;;;;;6111626;23;20399;-89
2024/01/21 13:16:05;;;;;;;4.83;3.30;;;;;;;;;;6137132;23;20392;-89
2024/01/21 13:18:32;;;;;;;4.10;3.60;;;;;;;;;;6136085;23;20389;-90
2024/01/21 13:20:58;;;;;;;5.63;3.33;;;;;;;;;;6133275;23;20400;-90
2024/01/21 13:23:24;;;;;;;5.17;3.00;;;;;;;;;;6135658;23;20361;-90
2024/01/21 13:25:50;;;;;;;10.40;3.90;;;;;;;;;;6135157;23;20413;-88
2024/01/21 13:28:27;;;;;;;5.57;3.73;;;;;;;;;;6091119;23;20377;-90
2024/01/21 13:30:55;;;;;;;7.37;4.03;;;;;;;;;;6158647;23;20848;-88
2024/01/21 13:33:26;;;;;;;6.00;3.33;;;;;;;;;;6211397;23;20403;-88
2024/01/21 13:35:53;;;;;;;5.77;3.87;;;;;;;;;;6210351;23;20431;-87
2024/01/21 13:38:26;;;;;;;4.77;2.90;;;;;;;;;;6188887;23;20892;-89
2024/01/21 13:40:52;;;;;;;4.30;3.23;;;;;;;;;;6188565;23;20470;-89
2024/01/21 13:43:18;;;;;;;3.63;3.20;;;;;;;;;;6188864;23;20400;-89
2024/01/21 13:45:44;;;;;;;3.53;3.10;;;;;;;;;;6188461;23;21177;-90
2024/01/21 13:48:13;;;;;;;4.80;2.77;;;;;;;;;;6190984;23;20396;-90
2024/01/21 13:50:39;;;;;;;8.20;2.90;;;;;;;;;;6194758;23;20562;-88
2024/01/21 13:53:05;;;;;;;10.50;3.10;;;;;;;;;;6217740;23;20418;-89
2024/01/21 13:55:32;;;;;;;3.20;2.90;;;;;;;;;;6191708;23;20995;-89
2024/01/21 13:57:58;;;;;;;4.60;3.30;;;;;;;;;;6193163;23;20396;-89
2024/01/21 14:00:24;;;;;;;4.43;2.77;;;;;;;;;;6191096;23;20387;-88
2024/01/21 14:02:57;;;;;;;13.70;3.17;;;;;;;;;;6192425;23;20459;-90
2024/01/21 14:05:23;;;;;;;4.57;2.77;;;;;;;;;;6194366;23;20433;-88
2024/01/21 14:07:50;;;;;;;4.87;4.47;;;;;;;;;;6193810;23;20442;-90
2024/01/21 14:10:16;;;;;;;3.57;2.63;;;;;;;;;;6188705;23;20581;-88
2024/01/21 14:12:42;;;;;;;4.30;3.50;;;;;;;;;;6190479;23;20368;-88
2024/01/21 14:15:08;;;;;;;3.40;3.10;;;;;;;;;;6190013;23;20384;-89
2024/01/21 14:17:34;;;;;;;3.80;2.67;;;;;;;;;;6188642;23;20376;-88
2024/01/21 14:20:01;;;;;;;3.50;3.20;;;;;;;;;;6186421;23;20384;-89
2024/01/21 14:22:27;;;;;;;3.70;2.87;;;;;;;;;;6189746;23;20966;-89
2024/01/21 14:24:55;;;;;;;3.17;2.40;;;;;;;;;;6211627;23;20422;-88
2024/01/21 14:27:21;;;;;;;6.80;3.00;;;;;;;;;;6190248;23;20380;-89
2024/01/21 14:29:49;;;;;;;3.20;2.40;;;;;;;;;;6188017;23;20428;-88
2024/01/21 14:32:15;;;;;;;3.77;2.87;;;;;;;;;;6188406;23;20833;-92
2024/01/21 14:34:41;;;;;;;4.90;3.57;;;;;;;;;;6187225;23;20494;-88
2024/01/21 14:37:07;;;;;;;2.40;2.20;;;;;;;;;;6187842;23;21013;-87
2024/01/21 14:39:33;;;;;;;5.20;2.50;;;;;;;;;;6187001;23;20446;-88